createdAt,value
2019-05-05T00:00:16.200Z,1.99
2019-05-05T00:01:16.202Z,2.00
2019-05-05T00:02:16.199Z,1.94
2019-05-05T00:03:16.185Z,1.99
2019-05-05T00:04:16.159Z,1.88
2019-05-05T00:05:16.152Z,2.02
2019-05-05T00:06:16.139Z,2.00
2019-05-05T00:07:16.147Z,2.04
2019-05-05T00:08:16.115Z,2.00
2019-05-05T00:09:16.103Z,1.95
2019-05-05T00:10:16.104Z,1.95
2019-05-05T00:11:16.085Z,2.06
2019-05-05T00:12:16.075Z,1.97
2019-05-05T00:13:16.075Z,2.11
2019-05-05T00:14:16.059Z,2.07
2019-05-05T00:15:16.047Z,1.95
2019-05-05T00:16:16.027Z,1.88
2019-05-05T00:17:16.024Z,2.00
2019-05-05T00:18:16.023Z,1.94
2019-05-05T00:19:29.001Z,1.92
2019-05-05T00:20:16.980Z,1.85
2019-05-05T00:21:15.975Z,1.88
2019-05-05T00:22:15.959Z,1.95
2019-05-05T00:23:15.955Z,1.85
2019-05-05T00:24:15.965Z,1.87
2019-05-05T00:25:15.938Z,1.84
2019-05-05T00:26:15.935Z,1.81
2019-05-05T00:27:15.911Z,1.78
2019-05-05T00:28:15.899Z,1.84
2019-05-05T00:29:15.886Z,1.85
2019-05-05T00:30:15.891Z,1.77
2019-05-05T00:31:15.867Z,1.87
2019-05-05T00:32:15.851Z,1.81
2019-05-05T00:33:15.859Z,1.80
2019-05-05T00:34:15.838Z,1.74
2019-05-05T00:35:15.819Z,1.67
2019-05-05T00:36:15.827Z,1.66
2019-05-05T00:37:15.795Z,1.71
2019-05-05T00:38:15.791Z,1.67
2019-05-05T00:39:15.775Z,1.68
2019-05-05T00:40:15.763Z,1.68
2019-05-05T00:41:15.759Z,1.74
2019-05-05T00:42:15.759Z,1.71
2019-05-05T00:43:15.736Z,1.62
2019-05-05T00:44:15.719Z,1.67
2019-05-05T00:45:15.713Z,1.70
2019-05-05T00:46:16.540Z,1.71
2019-05-05T00:47:15.716Z,1.67
2019-05-05T00:48:15.679Z,1.71
2019-05-05T00:49:15.679Z,1.59
2019-05-05T00:50:15.663Z,1.59
2019-05-05T00:51:15.648Z,1.59
2019-05-05T00:52:15.635Z,1.59
2019-05-05T00:53:15.659Z,1.56
2019-05-05T00:54:15.611Z,1.59
2019-05-05T00:55:15.604Z,1.63
2019-05-05T00:56:15.615Z,1.60
2019-05-05T00:57:15.583Z,1.56
2019-05-05T00:58:15.566Z,1.56
2019-05-05T00:59:15.585Z,1.63
2019-05-05T01:00:15.546Z,1.48
2019-05-05T01:01:15.560Z,1.49
2019-05-05T01:02:15.530Z,1.53
2019-05-05T01:03:15.514Z,1.52
2019-05-05T01:04:15.523Z,1.49
2019-05-05T01:05:15.500Z,1.49
2019-05-05T01:06:15.483Z,1.44
2019-05-05T01:07:15.475Z,1.45
2019-05-05T01:08:15.471Z,1.55
2019-05-05T01:09:15.458Z,1.48
2019-05-05T01:10:15.456Z,1.49
2019-05-05T01:11:15.432Z,1.49
2019-05-05T01:12:15.420Z,1.41
2019-05-05T01:13:15.412Z,1.42
2019-05-05T01:14:15.399Z,1.37
2019-05-05T01:15:15.393Z,1.42
2019-05-05T01:16:15.400Z,1.41
2019-05-05T01:17:15.367Z,1.49
2019-05-05T01:18:15.357Z,1.40
2019-05-05T01:19:15.338Z,1.45
2019-05-05T01:20:15.335Z,1.42
2019-05-05T01:21:15.323Z,1.48
2019-05-05T01:22:15.347Z,1.41
2019-05-05T01:23:15.302Z,1.52
2019-05-05T01:24:15.293Z,1.48
2019-05-05T01:25:15.279Z,1.52
2019-05-05T01:26:15.267Z,1.49
2019-05-05T01:27:15.256Z,1.48
2019-05-05T01:28:15.263Z,1.48
2019-05-05T01:29:15.249Z,1.44
2019-05-05T01:30:15.252Z,1.58
2019-05-05T01:31:15.224Z,1.48
2019-05-05T01:32:15.321Z,1.42
2019-05-05T01:33:15.191Z,1.45
2019-05-05T01:34:15.319Z,1.41
2019-05-05T01:35:15.168Z,1.44
2019-05-05T01:36:15.167Z,1.44
2019-05-05T01:37:15.250Z,1.41
2019-05-05T01:38:15.138Z,1.40
2019-05-05T01:39:15.128Z,1.37
2019-05-05T01:40:15.135Z,1.38
2019-05-05T01:41:15.108Z,1.40
2019-05-05T01:42:15.112Z,1.37
2019-05-05T01:43:15.080Z,1.41
2019-05-05T01:44:15.307Z,1.31
2019-05-05T01:45:15.079Z,1.37
2019-05-05T01:46:15.063Z,1.34
2019-05-05T01:47:15.043Z,1.38
2019-05-05T01:48:15.037Z,1.30
2019-05-05T01:49:15.019Z,1.35
2019-05-05T01:50:20.588Z,1.35
2019-05-05T01:51:16.015Z,1.28
2019-05-05T01:52:15.168Z,1.24
2019-05-05T01:53:15.300Z,1.35
2019-05-05T01:54:14.964Z,1.34
2019-05-05T01:55:14.954Z,1.28
2019-05-05T01:56:15.420Z,1.31
2019-05-05T01:57:15.070Z,1.31
2019-05-05T01:58:15.336Z,1.28
2019-05-05T01:59:14.911Z,1.24
2019-05-05T02:00:14.979Z,1.34
2019-05-05T02:01:15.330Z,1.28
2019-05-05T02:02:14.883Z,1.31
2019-05-05T02:03:14.904Z,1.23
2019-05-05T02:04:14.863Z,1.16
2019-05-05T02:05:14.943Z,1.16
2019-05-05T02:06:14.846Z,1.26
2019-05-05T02:07:14.823Z,1.24
2019-05-05T02:08:15.379Z,1.12
2019-05-05T02:09:15.873Z,1.16
2019-05-05T02:10:15.335Z,1.13
2019-05-05T02:11:15.634Z,1.12
2019-05-05T02:12:15.787Z,1.19
2019-05-05T02:13:16.069Z,1.16
2019-05-05T02:14:15.619Z,1.10
2019-05-05T02:15:15.082Z,1.17
2019-05-05T02:16:15.115Z,1.14
2019-05-05T02:17:14.715Z,1.16
2019-05-05T02:18:15.003Z,1.17
2019-05-05T02:19:14.694Z,1.12
2019-05-05T02:20:28.412Z,1.13
2019-05-05T02:21:15.675Z,1.13
2019-05-05T02:22:14.891Z,1.10
2019-05-05T02:23:15.203Z,1.12
2019-05-05T02:24:14.644Z,1.14
2019-05-05T02:25:14.653Z,1.20
2019-05-05T02:26:15.317Z,1.13
2019-05-05T02:27:14.755Z,1.08
2019-05-05T02:28:15.061Z,1.12
2019-05-05T02:29:14.589Z,1.12
2019-05-05T02:30:16.217Z,1.10
2019-05-05T02:31:16.662Z,1.10
2019-05-05T02:32:15.728Z,1.06
2019-05-05T02:33:15.702Z,1.13
2019-05-05T02:34:16.507Z,1.08
2019-05-05T02:35:16.197Z,1.10
2019-05-05T02:36:15.992Z,1.04
2019-05-05T02:37:16.100Z,1.08
2019-05-05T02:38:15.700Z,0.98
2019-05-05T02:39:15.933Z,1.14
2019-05-05T02:40:15.955Z,1.05
2019-05-05T02:41:15.485Z,1.10
2019-05-05T02:42:14.805Z,1.06
2019-05-05T02:43:15.266Z,1.17
2019-05-05T02:44:15.480Z,1.12
2019-05-05T02:45:15.561Z,1.13
2019-05-05T02:46:14.637Z,1.06
2019-05-05T02:47:15.526Z,1.01
2019-05-05T02:48:15.461Z,1.10
2019-05-05T02:49:15.313Z,1.13
2019-05-05T02:50:15.552Z,1.01
2019-05-05T02:51:15.352Z,1.08
2019-05-05T02:52:15.262Z,1.14
2019-05-05T02:53:14.365Z,1.02
2019-05-05T02:54:14.318Z,0.99
2019-05-05T02:55:14.732Z,1.02
2019-05-05T02:56:14.680Z,0.92
2019-05-05T02:57:14.291Z,1.06
2019-05-05T02:58:14.299Z,1.05
2019-05-05T02:59:14.747Z,1.05
2019-05-05T03:00:14.251Z,0.94
2019-05-05T03:01:14.239Z,1.01
2019-05-05T03:02:14.534Z,1.04
2019-05-05T03:03:14.219Z,1.01
2019-05-05T03:04:14.285Z,1.06
2019-05-05T03:05:14.348Z,0.99
2019-05-05T03:06:14.524Z,1.01
2019-05-05T03:07:14.191Z,0.99
2019-05-05T03:08:14.175Z,0.92
2019-05-05T03:09:14.155Z,0.98
2019-05-05T03:10:14.220Z,0.88
2019-05-05T03:11:14.518Z,0.98
2019-05-05T03:12:14.921Z,0.91
2019-05-05T03:13:14.131Z,0.99
2019-05-05T03:14:14.393Z,0.92
2019-05-05T03:15:14.337Z,0.83
2019-05-05T03:16:14.257Z,0.87
2019-05-05T03:17:14.491Z,0.86
2019-05-05T03:18:14.058Z,0.87
2019-05-05T03:19:14.310Z,0.88
2019-05-05T03:20:14.589Z,0.86
2019-05-05T03:21:14.101Z,0.92
2019-05-05T03:22:14.341Z,0.91
2019-05-05T03:23:14.007Z,0.84
2019-05-05T03:24:14.425Z,0.91
2019-05-05T03:25:13.995Z,0.88
2019-05-05T03:26:14.152Z,0.94
2019-05-05T03:27:14.466Z,0.94
2019-05-05T03:28:13.954Z,0.91
2019-05-05T03:29:13.946Z,0.94
2019-05-05T03:30:15.408Z,0.92
2019-05-05T03:31:15.964Z,0.91
2019-05-05T03:32:16.152Z,0.92
2019-05-05T03:33:15.954Z,0.96
2019-05-05T03:34:16.406Z,0.92
2019-05-05T03:35:13.891Z,0.88
2019-05-05T03:36:14.086Z,0.88
2019-05-05T03:37:14.596Z,0.86
2019-05-05T03:38:14.276Z,0.98
2019-05-05T03:39:14.395Z,0.91
2019-05-05T03:40:14.822Z,0.91
2019-05-05T03:41:13.814Z,0.92
2019-05-05T03:42:14.032Z,0.94
2019-05-05T03:43:14.489Z,0.94
2019-05-05T03:44:14.150Z,0.92
2019-05-05T03:45:14.541Z,0.92
2019-05-05T03:46:13.750Z,0.87
2019-05-05T03:47:14.045Z,0.88
2019-05-05T03:48:13.735Z,0.80
2019-05-05T03:49:14.163Z,0.81
2019-05-05T03:50:14.436Z,0.81
2019-05-05T03:51:18.806Z,0.70
2019-05-05T03:52:14.710Z,0.74
2019-05-05T03:53:14.090Z,0.83
2019-05-05T03:54:14.613Z,0.78
2019-05-05T03:55:13.911Z,0.73
2019-05-05T03:56:14.081Z,0.77
2019-05-05T03:57:14.214Z,0.76
2019-05-05T03:58:14.692Z,0.74
2019-05-05T03:59:14.248Z,0.77
2019-05-05T04:00:14.261Z,0.87
2019-05-05T04:01:14.528Z,0.70
2019-05-05T04:02:14.189Z,0.73
2019-05-05T04:03:14.701Z,0.74
2019-05-05T04:04:13.943Z,0.76
2019-05-05T04:05:14.571Z,0.68
2019-05-05T04:06:14.672Z,0.84
2019-05-05T04:07:14.032Z,0.76
2019-05-05T04:08:14.503Z,0.78
2019-05-05T04:09:13.773Z,0.83
2019-05-05T04:10:14.046Z,0.91
2019-05-05T04:11:14.346Z,0.86
2019-05-05T04:12:13.779Z,0.87
2019-05-05T04:13:13.943Z,0.86
2019-05-05T04:14:14.248Z,0.88
2019-05-05T04:15:14.196Z,0.98
2019-05-05T04:16:13.697Z,0.87
2019-05-05T04:17:14.107Z,0.95
2019-05-05T04:18:14.561Z,0.91
2019-05-05T04:19:13.922Z,1.04
2019-05-05T04:20:13.865Z,0.94
2019-05-05T04:21:14.488Z,0.99
2019-05-05T04:22:13.671Z,0.99
2019-05-05T04:23:14.188Z,1.04
2019-05-05T04:24:14.544Z,0.96
2019-05-05T04:25:13.938Z,0.96
2019-05-05T04:26:14.263Z,0.95
2019-05-05T04:27:14.685Z,0.99
2019-05-05T04:28:13.695Z,0.99
2019-05-05T04:29:13.944Z,0.96
2019-05-05T04:30:14.295Z,0.96
2019-05-05T04:31:13.641Z,0.98
2019-05-05T04:32:14.089Z,0.91
2019-05-05T04:33:14.208Z,0.96
2019-05-05T04:34:13.527Z,0.95
2019-05-05T04:35:14.089Z,0.94
2019-05-05T04:36:14.437Z,1.06
2019-05-05T04:37:14.912Z,0.99
2019-05-05T04:38:13.889Z,0.96
2019-05-05T04:39:14.373Z,0.92
2019-05-05T04:40:14.870Z,0.98
2019-05-05T04:41:14.040Z,0.99
2019-05-05T04:42:14.028Z,0.95
2019-05-05T04:43:14.359Z,0.91
2019-05-05T04:44:14.857Z,0.92
2019-05-05T04:45:14.838Z,0.92
2019-05-05T04:46:13.980Z,0.96
2019-05-05T04:47:14.527Z,0.91
2019-05-05T04:48:13.739Z,0.96
2019-05-05T04:49:13.987Z,0.95
2019-05-05T04:50:14.952Z,0.96
2019-05-05T04:51:13.909Z,1.01
2019-05-05T04:52:14.315Z,1.12
2019-05-05T04:53:13.542Z,1.05
2019-05-05T04:54:14.181Z,1.08
2019-05-05T04:55:13.840Z,1.01
2019-05-05T04:56:14.103Z,1.01
2019-05-05T04:57:14.852Z,1.08
2019-05-05T04:58:13.660Z,0.98
2019-05-05T04:59:14.404Z,1.06
2019-05-05T05:00:13.706Z,1.14
2019-05-05T05:01:13.601Z,1.02
2019-05-05T05:02:14.429Z,1.17
2019-05-05T05:03:13.334Z,1.12
2019-05-05T05:04:13.798Z,1.14
2019-05-05T05:05:14.481Z,1.22
2019-05-05T05:06:14.617Z,1.24
2019-05-05T05:07:13.589Z,1.14
2019-05-05T05:08:13.975Z,1.14
2019-05-05T05:09:14.623Z,1.19
2019-05-05T05:10:13.874Z,1.16
2019-05-05T05:11:14.205Z,1.17
2019-05-05T05:12:14.598Z,1.26
2019-05-05T05:13:13.834Z,1.35
2019-05-05T05:14:14.390Z,1.35
2019-05-05T05:15:14.585Z,1.30
2019-05-05T05:16:13.879Z,1.38
2019-05-05T05:17:14.094Z,1.41
2019-05-05T05:18:14.768Z,1.37
2019-05-05T05:19:13.716Z,1.44
2019-05-05T05:20:14.159Z,1.45
2019-05-05T05:21:14.508Z,1.48
2019-05-05T05:22:13.672Z,1.50
2019-05-05T05:23:14.140Z,1.58
2019-05-05T05:24:14.673Z,1.52
2019-05-05T05:25:13.603Z,1.71
2019-05-05T05:26:13.905Z,1.68
2019-05-05T05:27:13.890Z,1.68
2019-05-05T05:28:14.352Z,1.77
2019-05-05T05:29:14.893Z,1.76
2019-05-05T05:30:13.755Z,1.81
2019-05-05T05:31:14.094Z,1.88
2019-05-05T05:32:12.613Z,1.91
2019-05-05T05:33:14.766Z,1.91
2019-05-05T05:34:14.660Z,2.10
2019-05-05T05:35:14.064Z,2.15
2019-05-05T05:36:14.416Z,2.14
2019-05-05T05:37:13.510Z,2.25
2019-05-05T05:38:14.002Z,2.17
2019-05-05T05:39:13.973Z,2.31
2019-05-05T05:40:14.395Z,2.31
2019-05-05T05:41:13.666Z,2.32
2019-05-05T05:42:13.726Z,2.42
2019-05-05T05:43:13.905Z,2.49
2019-05-05T05:44:14.055Z,2.43
2019-05-05T05:45:14.436Z,2.50
2019-05-05T05:46:13.603Z,2.43
2019-05-05T05:47:14.055Z,2.53
2019-05-05T05:48:14.253Z,2.53
2019-05-05T05:49:13.507Z,2.57
2019-05-05T05:50:14.302Z,2.67
2019-05-05T05:51:14.482Z,2.60
2019-05-05T05:52:18.756Z,2.69
2019-05-05T05:53:13.960Z,2.71
2019-05-05T05:54:14.156Z,2.68
2019-05-05T05:55:14.445Z,2.75
2019-05-05T05:56:13.519Z,2.79
2019-05-05T05:57:13.605Z,2.80
2019-05-05T05:58:14.039Z,2.79
2019-05-05T05:59:14.087Z,2.80
2019-05-05T06:00:14.362Z,2.77
2019-05-05T06:01:14.553Z,2.75
2019-05-05T06:02:15.255Z,2.75
2019-05-05T06:03:14.134Z,2.68
2019-05-05T06:04:14.391Z,2.72
2019-05-05T06:05:12.236Z,2.74
2019-05-05T06:06:13.850Z,2.71
2019-05-05T06:07:14.317Z,2.74
2019-05-05T06:08:14.220Z,2.75
2019-05-05T06:09:12.185Z,2.80
2019-05-05T06:10:22.293Z,2.80
2019-05-05T06:11:13.653Z,2.82
2019-05-05T06:12:14.005Z,2.82
2019-05-05T06:13:14.916Z,2.83
2019-05-05T06:14:14.424Z,2.90
2019-05-05T06:15:14.106Z,2.93
2019-05-05T06:16:12.113Z,2.97
2019-05-05T06:17:13.527Z,2.97
2019-05-05T06:18:13.835Z,3.00
2019-05-05T06:19:13.954Z,3.03
2019-05-05T06:20:12.062Z,3.11
2019-05-05T06:21:13.717Z,3.14
2019-05-05T06:22:13.932Z,3.00
2019-05-05T06:23:14.755Z,3.04
2019-05-05T06:24:13.612Z,3.11
2019-05-05T06:25:15.540Z,3.18
2019-05-05T06:26:14.901Z,3.22
2019-05-05T06:27:14.110Z,3.31
2019-05-05T06:28:14.303Z,3.31
2019-05-05T06:29:11.978Z,3.31
2019-05-05T06:30:13.798Z,3.41
2019-05-05T06:31:13.883Z,3.50
2019-05-05T06:32:11.938Z,3.51
2019-05-05T06:33:13.718Z,3.53
2019-05-05T06:34:13.860Z,3.51
2019-05-05T06:35:13.728Z,3.53
2019-05-05T06:36:13.825Z,3.62
2019-05-05T06:37:11.886Z,3.66
2019-05-05T06:38:13.654Z,3.70
2019-05-05T06:39:13.598Z,3.77
2019-05-05T06:40:13.879Z,3.73
2019-05-05T06:41:11.850Z,3.77
2019-05-05T06:42:13.576Z,3.78
2019-05-05T06:43:13.486Z,3.81
2019-05-05T06:44:11.805Z,3.92
2019-05-05T06:45:11.797Z,3.91
2019-05-05T06:46:11.777Z,3.99
2019-05-05T06:47:13.557Z,4.02
2019-05-05T06:48:13.451Z,3.99
2019-05-05T06:49:13.548Z,4.17
2019-05-05T06:50:13.504Z,4.19
2019-05-05T06:51:13.916Z,4.16
2019-05-05T06:52:11.730Z,4.35
2019-05-05T06:53:13.540Z,4.34
2019-05-05T06:54:13.617Z,4.44
2019-05-05T06:55:11.681Z,4.41
2019-05-05T06:56:11.665Z,4.55
2019-05-05T06:57:13.513Z,4.67
2019-05-05T06:58:13.601Z,4.77
2019-05-05T06:59:13.590Z,4.84
2019-05-05T07:00:13.825Z,4.92
2019-05-05T07:01:11.613Z,4.96
2019-05-05T07:02:11.601Z,4.96
2019-05-05T07:03:13.752Z,4.94
2019-05-05T07:04:11.593Z,4.97
2019-05-05T07:05:11.593Z,4.94
2019-05-05T07:06:11.574Z,4.93
2019-05-05T07:07:11.545Z,5.00
2019-05-05T07:08:13.601Z,5.02
2019-05-05T07:09:13.395Z,5.15
2019-05-05T07:10:11.517Z,5.12
2019-05-05T07:11:11.526Z,5.17
2019-05-05T07:12:13.636Z,5.04
2019-05-05T07:13:11.486Z,5.00
2019-05-05T07:14:11.471Z,5.07
2019-05-05T07:15:11.465Z,5.02
2019-05-05T07:16:12.844Z,5.17
2019-05-05T07:17:11.461Z,5.08
2019-05-05T07:18:11.422Z,5.18
2019-05-05T07:19:11.413Z,5.23
2019-05-05T07:20:13.444Z,5.26
2019-05-05T07:21:11.389Z,5.32
2019-05-05T07:22:11.398Z,5.46
2019-05-05T07:23:11.373Z,5.53
2019-05-05T07:24:11.362Z,5.47
2019-05-05T07:25:13.611Z,5.51
2019-05-05T07:26:11.341Z,5.64
2019-05-05T07:27:11.325Z,5.68
2019-05-05T07:28:11.329Z,5.65
2019-05-05T07:29:11.305Z,5.72
2019-05-05T07:30:11.285Z,5.82
2019-05-05T07:31:11.277Z,5.82
2019-05-05T07:32:11.277Z,5.90
2019-05-05T07:33:11.277Z,5.99
2019-05-05T07:34:11.241Z,5.93
2019-05-05T07:35:11.234Z,5.93
2019-05-05T07:36:11.225Z,5.91
2019-05-05T07:37:11.210Z,5.99
2019-05-05T07:38:11.197Z,6.11
2019-05-05T07:39:11.229Z,6.14
2019-05-05T07:40:13.425Z,6.20
2019-05-05T07:41:11.169Z,6.17
2019-05-05T07:42:11.166Z,6.17
2019-05-05T07:43:11.145Z,6.09
2019-05-05T07:44:25.031Z,6.11
2019-05-05T07:45:20.298Z,6.17
2019-05-05T07:46:13.522Z,6.20
2019-05-05T07:47:11.100Z,6.26
2019-05-05T07:48:11.094Z,6.28
2019-05-05T07:49:11.083Z,6.33
2019-05-05T07:50:24.926Z,6.38
2019-05-05T07:51:13.963Z,6.46
2019-05-05T07:52:11.225Z,6.59
2019-05-05T07:53:14.906Z,6.64
2019-05-05T07:54:14.305Z,6.49
2019-05-05T07:55:11.011Z,6.46
2019-05-05T07:56:11.026Z,6.63
2019-05-05T07:57:10.998Z,6.62
2019-05-05T07:58:10.981Z,6.63
2019-05-05T07:59:10.965Z,6.69
2019-05-05T08:00:10.962Z,6.77
2019-05-05T08:01:10.953Z,6.75
2019-05-05T08:02:10.946Z,6.81
2019-05-05T08:03:10.937Z,6.66
2019-05-05T08:04:10.909Z,6.64
2019-05-05T08:05:10.902Z,6.67
2019-05-05T08:06:10.889Z,6.67
2019-05-05T08:07:10.877Z,6.72
2019-05-05T08:08:10.881Z,6.62
2019-05-05T08:09:10.921Z,6.72
2019-05-05T08:10:10.845Z,6.67
2019-05-05T08:11:10.842Z,6.72
2019-05-05T08:12:10.821Z,6.72
2019-05-05T08:13:10.824Z,6.64
2019-05-05T08:14:10.830Z,6.56
2019-05-05T08:15:10.785Z,6.70
2019-05-05T08:16:10.777Z,6.79
2019-05-05T08:17:10.769Z,6.75
2019-05-05T08:18:10.769Z,6.75
2019-05-05T08:19:10.741Z,6.77
2019-05-05T08:20:10.761Z,6.70
2019-05-05T08:21:10.729Z,6.70
2019-05-05T08:22:10.713Z,6.75
2019-05-05T08:23:10.701Z,6.72
2019-05-05T08:24:10.693Z,6.67
2019-05-05T08:25:10.689Z,6.67
2019-05-05T08:26:10.702Z,6.64
2019-05-05T08:27:10.653Z,6.63
2019-05-05T08:28:10.695Z,6.67
2019-05-05T08:29:10.633Z,6.62
2019-05-05T08:30:10.621Z,6.57
2019-05-05T08:31:10.610Z,6.64
2019-05-05T08:32:10.613Z,6.77
2019-05-05T08:33:10.592Z,6.79
2019-05-05T08:34:10.589Z,6.77
2019-05-05T08:35:10.565Z,6.79
2019-05-05T08:36:10.555Z,6.87
2019-05-05T08:37:10.550Z,6.81
2019-05-05T08:38:10.543Z,6.99
2019-05-05T08:39:10.521Z,7.06
2019-05-05T08:40:10.514Z,7.07
2019-05-05T08:41:10.522Z,7.17
2019-05-05T08:42:10.493Z,7.11
2019-05-05T08:43:10.473Z,7.17
2019-05-05T08:44:10.477Z,7.15
2019-05-05T08:45:10.453Z,7.31
2019-05-05T08:46:10.442Z,7.38
2019-05-05T08:47:10.433Z,7.25
2019-05-05T08:48:10.433Z,7.35
2019-05-05T08:49:10.409Z,7.32
2019-05-05T08:50:10.417Z,7.20
2019-05-05T08:51:10.385Z,7.20
2019-05-05T08:52:10.377Z,7.13
2019-05-05T08:53:10.374Z,7.29
2019-05-05T08:54:10.377Z,7.43
2019-05-05T08:55:10.342Z,7.42
2019-05-05T08:56:10.334Z,7.43
2019-05-05T08:57:10.321Z,7.45
2019-05-05T08:58:10.314Z,7.43
2019-05-05T08:59:10.325Z,7.54
2019-05-05T09:00:10.317Z,7.47
2019-05-05T09:01:10.275Z,7.50
2019-05-05T09:02:10.265Z,7.57
2019-05-05T09:03:10.273Z,7.69
2019-05-05T09:04:10.237Z,7.70
2019-05-05T09:05:10.269Z,7.82
2019-05-05T09:06:10.261Z,7.88
2019-05-05T09:07:10.209Z,7.95
2019-05-05T09:08:10.225Z,8.12
2019-05-05T09:09:10.181Z,8.16
2019-05-05T09:10:10.173Z,8.24
2019-05-05T09:11:10.161Z,8.42
2019-05-05T09:12:10.189Z,8.60
2019-05-05T09:13:10.141Z,8.84
2019-05-05T09:14:10.125Z,8.84
2019-05-05T09:15:10.118Z,8.84
2019-05-05T09:16:10.105Z,8.81
2019-05-05T09:17:10.121Z,8.74
2019-05-05T09:18:10.097Z,8.81
2019-05-05T09:19:10.074Z,8.76
2019-05-05T09:20:10.065Z,8.60
2019-05-05T09:21:10.051Z,8.61
2019-05-05T09:22:10.050Z,8.63
2019-05-05T09:23:10.049Z,8.64
2019-05-05T09:24:10.013Z,8.60
2019-05-05T09:25:10.005Z,8.51
2019-05-05T09:26:10.000Z,8.52
2019-05-05T09:27:09.981Z,8.58
2019-05-05T09:28:09.978Z,8.84
2019-05-05T09:29:09.981Z,9.11
2019-05-05T09:30:09.975Z,9.23
2019-05-05T09:31:09.969Z,9.47
2019-05-05T09:32:09.947Z,9.56
2019-05-05T09:33:09.917Z,9.73
2019-05-05T09:34:09.916Z,9.61
2019-05-05T09:35:09.910Z,9.48
2019-05-05T09:36:09.893Z,9.40
2019-05-05T09:37:09.873Z,9.34
2019-05-05T09:38:09.865Z,9.19
2019-05-05T09:39:09.853Z,8.97
2019-05-05T09:40:09.857Z,8.67
2019-05-05T09:41:09.845Z,8.64
2019-05-05T09:42:09.817Z,8.34
2019-05-05T09:43:09.807Z,8.30
2019-05-05T09:44:09.793Z,8.28
2019-05-05T09:45:09.837Z,8.20
2019-05-05T09:46:09.770Z,8.26
2019-05-05T09:47:09.777Z,8.16
2019-05-05T09:48:09.749Z,8.05
2019-05-05T09:49:09.741Z,8.01
2019-05-05T09:50:09.731Z,7.85
2019-05-05T09:51:09.713Z,7.67
2019-05-05T09:52:09.722Z,7.53
2019-05-05T09:53:09.709Z,7.53
2019-05-05T09:54:13.981Z,7.47
2019-05-05T09:55:09.673Z,7.45
2019-05-05T09:56:09.661Z,7.53
2019-05-05T09:57:09.661Z,7.57
2019-05-05T09:58:09.633Z,7.57
2019-05-05T09:59:09.645Z,7.51
2019-05-05T10:00:09.613Z,7.70
2019-05-05T10:01:09.609Z,7.70
2019-05-05T10:02:09.593Z,7.80
2019-05-05T10:03:09.585Z,7.91
2019-05-05T10:04:09.594Z,7.87
2019-05-05T10:05:09.565Z,7.95
2019-05-05T10:06:09.610Z,8.05
2019-05-05T10:07:09.541Z,8.16
2019-05-05T10:08:09.533Z,8.24
2019-05-05T10:09:09.519Z,8.33
2019-05-05T10:10:09.525Z,8.42
2019-05-05T10:11:09.521Z,8.44
2019-05-05T10:12:09.496Z,8.53
2019-05-05T10:13:09.480Z,8.63
2019-05-05T10:14:09.470Z,8.78
2019-05-05T10:15:09.465Z,8.97
2019-05-05T10:16:09.441Z,9.11
2019-05-05T10:17:09.449Z,9.10
2019-05-05T10:18:09.417Z,9.26
2019-05-05T10:19:09.405Z,9.41
2019-05-05T10:20:09.393Z,9.54
2019-05-05T10:21:09.405Z,9.54
2019-05-05T10:22:09.373Z,9.54
2019-05-05T10:23:09.357Z,9.50
2019-05-05T10:24:09.348Z,9.48
2019-05-05T10:25:09.333Z,9.44
2019-05-05T10:26:09.353Z,9.48
2019-05-05T10:27:09.341Z,9.40
2019-05-05T10:28:09.306Z,9.19
2019-05-05T10:29:09.313Z,9.16
2019-05-05T10:30:10.647Z,9.08
2019-05-05T10:31:09.269Z,9.13
2019-05-05T10:32:09.293Z,9.08
2019-05-05T10:33:09.250Z,9.00
2019-05-05T10:34:09.257Z,8.91
2019-05-05T10:35:09.225Z,8.88
2019-05-05T10:36:09.213Z,8.67
2019-05-05T10:37:09.205Z,8.56
2019-05-05T10:38:09.205Z,8.49
2019-05-05T10:39:09.177Z,8.24
2019-05-05T10:40:09.197Z,8.03
2019-05-05T10:41:09.169Z,7.93
2019-05-05T10:42:09.161Z,7.88
2019-05-05T10:43:09.169Z,7.77
2019-05-05T10:44:09.133Z,7.47
2019-05-05T10:45:16.165Z,7.47
2019-05-05T10:46:09.109Z,7.38
2019-05-05T10:47:09.094Z,7.51
2019-05-05T10:48:09.085Z,7.50
2019-05-05T10:49:09.089Z,7.48
2019-05-05T10:50:09.064Z,7.67
2019-05-05T10:51:09.060Z,7.76
2019-05-05T10:52:09.037Z,7.88
2019-05-05T10:53:09.026Z,8.01
2019-05-05T10:54:09.033Z,8.24
2019-05-05T10:55:09.005Z,8.33
2019-05-05T10:56:09.025Z,8.44
2019-05-05T10:57:08.981Z,8.55
2019-05-05T10:58:08.976Z,8.74
2019-05-05T10:59:08.963Z,8.69
2019-05-05T11:00:12.471Z,8.78
2019-05-05T11:01:09.965Z,8.84
2019-05-05T11:02:08.934Z,8.87
2019-05-05T11:03:15.953Z,8.84
2019-05-05T11:04:08.901Z,8.73
2019-05-05T11:05:08.897Z,8.85
2019-05-05T11:06:08.958Z,8.89
2019-05-05T11:07:08.889Z,8.99
2019-05-05T11:08:08.889Z,8.95
2019-05-05T11:09:08.849Z,8.99
2019-05-05T11:10:08.837Z,8.91
2019-05-05T11:11:08.825Z,8.87
2019-05-05T11:12:08.813Z,8.97
2019-05-05T11:13:08.818Z,9.03
2019-05-05T11:14:08.789Z,9.04
2019-05-05T11:15:08.793Z,9.11
2019-05-05T11:16:08.774Z,9.13
2019-05-05T11:17:08.757Z,9.32
2019-05-05T11:18:08.757Z,9.54
2019-05-05T11:19:08.747Z,9.68
2019-05-05T11:20:08.725Z,9.83
2019-05-05T11:21:08.713Z,10.04
2019-05-05T11:22:08.701Z,10.22
2019-05-05T11:23:08.701Z,10.23
2019-05-05T11:24:08.697Z,10.34
2019-05-05T11:25:08.673Z,10.59
2019-05-05T11:26:08.681Z,10.71
2019-05-05T11:27:08.645Z,10.74
2019-05-05T11:28:08.633Z,10.93
2019-05-05T11:29:08.633Z,10.96
2019-05-05T11:30:08.616Z,11.04
2019-05-05T11:31:08.601Z,10.94
2019-05-05T11:32:08.606Z,10.86
2019-05-05T11:33:08.578Z,10.60
2019-05-05T11:34:08.573Z,10.60
2019-05-05T11:35:08.557Z,10.46
2019-05-05T11:36:08.545Z,10.35
2019-05-05T11:37:08.533Z,10.23
2019-05-05T11:38:08.541Z,10.25
2019-05-05T11:39:08.509Z,10.15
2019-05-05T11:40:08.501Z,10.26
2019-05-05T11:41:08.505Z,10.19
2019-05-05T11:42:08.477Z,10.19
2019-05-05T11:43:08.465Z,10.10
2019-05-05T11:44:08.473Z,10.07
2019-05-05T11:45:08.445Z,10.10
2019-05-05T11:46:08.434Z,9.94
2019-05-05T11:47:08.421Z,9.83
2019-05-05T11:48:08.414Z,9.89
2019-05-05T11:49:08.410Z,9.82
2019-05-05T11:50:08.409Z,9.82
2019-05-05T11:51:15.473Z,9.77
2019-05-05T11:52:08.367Z,9.76
2019-05-05T11:53:08.353Z,9.83
2019-05-05T11:54:08.360Z,9.79
2019-05-05T11:55:12.009Z,9.94
2019-05-05T11:56:08.333Z,10.01
2019-05-05T11:57:08.307Z,9.95
2019-05-05T11:58:08.297Z,10.01
2019-05-05T11:59:08.286Z,9.95
2019-05-05T12:00:08.294Z,9.99
2019-05-05T12:01:08.265Z,9.86
2019-05-05T12:02:08.313Z,9.91
2019-05-05T12:03:08.244Z,9.89
2019-05-05T12:04:08.232Z,9.80
2019-05-05T12:05:08.241Z,9.82
2019-05-05T12:06:08.232Z,9.79
2019-05-05T12:07:08.217Z,9.79
2019-05-05T12:08:08.193Z,9.62
2019-05-05T12:09:08.273Z,9.69
2019-05-05T12:10:08.164Z,9.65
2019-05-05T12:11:08.156Z,9.68
2019-05-05T12:12:08.169Z,9.50
2019-05-05T12:13:08.141Z,9.65
2019-05-05T12:14:08.121Z,9.72
2019-05-05T12:15:08.109Z,9.65
2019-05-05T12:16:08.104Z,9.50
2019-05-05T12:17:08.119Z,9.64
2019-05-05T12:18:08.089Z,9.77
2019-05-05T12:19:08.060Z,9.80
2019-05-05T12:20:08.052Z,9.79
2019-05-05T12:21:08.046Z,9.94
2019-05-05T12:22:08.034Z,10.04
2019-05-05T12:23:08.033Z,10.07
2019-05-05T12:24:08.024Z,10.07
2019-05-05T12:25:07.997Z,10.02
2019-05-05T12:26:08.017Z,9.98
2019-05-05T12:27:07.973Z,10.01
2019-05-05T12:28:07.968Z,9.92
2019-05-05T12:29:07.973Z,9.86
2019-05-05T12:30:07.968Z,9.94
2019-05-05T12:31:07.998Z,9.98
2019-05-05T12:32:07.936Z,9.95
2019-05-05T12:33:07.913Z,9.94
2019-05-05T12:34:07.911Z,10.04
2019-05-05T12:35:07.891Z,10.12
2019-05-05T12:36:07.941Z,10.13
2019-05-05T12:37:07.881Z,10.22
2019-05-05T12:38:07.856Z,10.19
2019-05-05T12:39:07.885Z,10.23
2019-05-05T12:40:07.836Z,10.23
2019-05-05T12:41:07.820Z,10.20
2019-05-05T12:42:07.809Z,10.19
2019-05-05T12:43:07.837Z,10.16
2019-05-05T12:44:07.784Z,10.15
2019-05-05T12:45:07.786Z,10.16
2019-05-05T12:46:07.768Z,10.23
2019-05-05T12:47:07.793Z,10.20
2019-05-05T12:48:07.749Z,10.30
2019-05-05T12:49:07.744Z,10.20
2019-05-05T12:50:07.731Z,10.23
2019-05-05T12:51:07.724Z,10.23
2019-05-05T12:52:07.709Z,10.33
2019-05-05T12:53:07.732Z,10.35
2019-05-05T12:54:07.687Z,10.34
2019-05-05T12:55:07.730Z,10.59
2019-05-05T12:56:07.665Z,10.74
2019-05-05T12:57:07.640Z,10.81
2019-05-05T12:58:07.644Z,10.78
2019-05-05T12:59:07.640Z,10.97
2019-05-05T13:00:07.624Z,10.93
2019-05-05T13:01:07.604Z,11.05
2019-05-05T13:02:07.605Z,11.26
2019-05-05T13:03:07.692Z,11.30
2019-05-05T13:04:07.568Z,11.37
2019-05-05T13:05:07.572Z,11.63
2019-05-05T13:06:07.584Z,11.68
2019-05-05T13:07:08.301Z,11.70
2019-05-05T13:08:07.524Z,11.69
2019-05-05T13:09:07.517Z,11.69
2019-05-05T13:10:07.540Z,11.91
2019-05-05T13:11:07.513Z,12.03
2019-05-05T13:12:07.505Z,12.32
2019-05-05T13:13:07.460Z,12.47
2019-05-05T13:14:07.468Z,12.54
2019-05-05T13:15:07.444Z,12.53